Time;durP1;ratioP1;P1;durP2;ratioP2;P2;SDS_P1;SDS_P2;PMS_P1;PMS_P2;Temp;Humidity;BMP_temperature;BMP_pressure;BME280_temperature;BME280_humidity;BME280_pressure;Samples;Min_cycle;Max_cycle;Signal;HPM_P1;HPM_P2
2023/03/16 00:01:40;;;;;;;0.00;0.00;;;1.40;99.90;;;;;;5058599;28;20185;-73
2023/03/16 00:04:06;;;;;;;0.00;0.00;;;1.40;99.90;;;;;;5062486;28;20573;-73
2023/03/16 00:06:32;;;;;;;0.00;0.00;;;1.40;99.90;;;;;;5062793;28;20640;-72
2023/03/16 00:08:57;;;;;;;0.43;0.43;;;1.40;99.90;;;;;;5061028;28;20178;-73
2023/03/16 00:11:24;;;;;;;0.00;0.00;;;1.40;99.90;;;;;;5060699;28;20227;-72
2023/03/16 00:13:50;;;;;;;0.00;0.00;;;1.40;99.90;;;;;;5058709;28;20183;-72
2023/03/16 00:16:15;;;;;;;0.22;0.22;;;1.40;99.90;;;;;;5071728;28;20173;-71
2023/03/16 00:18:41;;;;;;;0.00;0.00;;;1.40;99.90;;;;;;5060003;28;20264;-72
2023/03/16 00:21:07;;;;;;;0.22;0.10;;;1.30;99.90;;;;;;5051775;28;20224;-72
2023/03/16 00:23:34;;;;;;;0.00;0.00;;;1.30;99.90;;;;;;5055484;28;20184;-72
2023/03/16 00:26:03;;;;;;;0.10;0.10;;;1.30;99.90;;;;;;5054036;28;20664;-72
2023/03/16 00:28:34;;;;;;;0.00;0.00;;;1.30;99.90;;;;;;5051932;28;20264;-72
2023/03/16 00:31:07;;;;;;;0.10;0.10;;;1.20;99.90;;;;;;5051778;28;20173;-72
2023/03/16 00:33:36;;;;;;;0.00;0.00;;;1.30;99.90;;;;;;5065660;28;20185;-71
2023/03/16 00:36:06;;;;;;;0.00;0.00;;;1.30;99.90;;;;;;5066548;28;20637;-72
2023/03/16 00:38:34;;;;;;;0.00;0.00;;;1.30;99.90;;;;;;5063400;28;20176;-72
2023/03/16 00:41:04;;;;;;;0.10;0.10;;;1.30;99.90;;;;;;5057368;28;20220;-72
2023/03/16 00:43:31;;;;;;;0.00;0.00;;;1.30;99.90;;;;;;5065064;28;20173;-72
2023/03/16 00:45:58;;;;;;;0.00;0.00;;;1.30;99.90;;;;;;5055819;28;20186;-70
2023/03/16 00:48:23;;;;;;;0.20;0.20;;;1.30;99.90;;;;;;5051348;28;20217;-71
2023/03/16 00:50:53;;;;;;;0.32;0.20;;;1.20;99.90;;;;;;5051177;28;20595;-72
2023/03/16 00:53:18;;;;;;;0.00;0.00;;;1.20;99.90;;;;;;5049105;28;20224;-72
2023/03/16 00:55:44;;;;;;;0.00;0.00;;;1.20;99.90;;;;;;5051033;28;21016;-72
2023/03/16 00:58:13;;;;;;;0.75;0.20;;;1.20;99.90;;;;;;5051505;28;20208;-72
2023/03/16 01:00:39;;;;;;;0.00;0.00;;;1.20;99.90;;;;;;5051083;28;20224;-72
2023/03/16 01:03:05;;;;;;;0.08;0.08;;;1.10;99.90;;;;;;5052666;28;20177;-73
2023/03/16 01:05:32;;;;;;;0.00;0.00;;;1.20;99.90;;;;;;5057116;28;20193;-74
2023/03/16 01:08:01;;;;;;;0.00;0.00;;;1.10;99.90;;;;;;5062858;28;20196;-73
2023/03/16 01:10:26;;;;;;;0.00;0.00;;;1.10;99.90;;;;;;5054297;28;20196;-73
2023/03/16 01:12:54;;;;;;;0.00;0.00;;;1.10;99.90;;;;;;5060388;28;20185;-73
2023/03/16 01:15:21;;;;;;;0.00;0.00;;;1.10;99.90;;;;;;5054885;28;20259;-73
2023/03/16 01:17:46;;;;;;;0.00;0.00;;;1.10;99.90;;;;;;5058068;28;20297;-73
2023/03/16 01:20:14;;;;;;;0.05;0.05;;;1.10;99.90;;;;;;5064374;28;20304;-73
2023/03/16 01:22:39;;;;;;;0.47;0.40;;;1.10;99.90;;;;;;5051600;28;20178;-74
2023/03/16 01:25:05;;;;;;;0.00;0.00;;;1.10;99.90;;;;;;5050856;28;20189;-73
2023/03/16 01:27:31;;;;;;;0.10;0.10;;;1.10;99.90;;;;;;5054547;28;20264;-73
2023/03/16 01:29:57;;;;;;;0.28;0.28;;;1.00;99.90;;;;;;5070686;28;20180;-74
2023/03/16 01:32:22;;;;;;;0.35;0.35;;;1.10;99.90;;;;;;5068843;28;20181;-73
2023/03/16 01:34:48;;;;;;;0.00;0.00;;;1.10;99.90;;;;;;5055146;28;20601;-73
2023/03/16 01:37:13;;;;;;;0.00;0.00;;;1.00;99.90;;;;;;5055151;28;20185;-73
2023/03/16 01:39:39;;;;;;;0.00;0.00;;;1.00;99.90;;;;;;5055207;28;20299;-73
2023/03/16 01:42:05;;;;;;;0.10;0.10;;;1.00;99.90;;;;;;5068522;28;20247;-73
2023/03/16 01:44:53;;;;;;;0.30;0.17;;;1.00;99.90;;;;;;5054748;28;20212;-74
2023/03/16 01:47:19;;;;;;;0.32;0.32;;;1.00;99.90;;;;;;5037641;28;20177;-74
2023/03/16 01:49:47;;;;;;;0.10;0.10;;;1.00;99.90;;;;;;5053153;28;20181;-73
2023/03/16 01:52:18;;;;;;;0.10;0.10;;;1.00;99.90;;;;;;5054557;28;20177;-73
2023/03/16 01:54:50;;;;;;;0.10;0.10;;;1.00;99.90;;;;;;5054817;28;20180;-73
2023/03/16 01:57:19;;;;;;;0.20;0.20;;;1.00;99.90;;;;;;5054575;28;20268;-73
2023/03/16 02:00:09;;;;;;;0.00;0.00;;;0.90;99.90;;;;;;5054074;28;20718;-74
2023/03/16 02:02:38;;;;;;;0.00;0.00;;;0.90;99.90;;;;;;5054713;28;20252;-73
2023/03/16 02:05:15;;;;;;;0.03;0.03;;;0.90;99.90;;;;;;5054180;28;20189;-73
2023/03/16 02:07:46;;;;;;;0.55;0.55;;;0.90;99.90;;;;;;5054310;28;20178;-73
2023/03/16 02:10:15;;;;;;;0.00;0.00;;;0.90;99.90;;;;;;5054067;28;20177;-73
2023/03/16 02:12:42;;;;;;;0.25;0.25;;;0.90;99.90;;;;;;5050435;28;20189;-73
2023/03/16 02:15:08;;;;;;;0.00;0.00;;;0.90;99.90;;;;;;5034369;28;20224;-73
2023/03/16 02:17:35;;;;;;;0.00;0.00;;;0.90;99.90;;;;;;5051596;28;20213;-73
2023/03/16 02:20:37;;;;;;;0.10;0.10;;;0.90;99.90;;;;;;5053435;28;20259;-73
2023/03/16 02:23:06;;;;;;;0.00;0.00;;;0.90;99.90;;;;;;5059886;28;20200;-73
2023/03/16 02:25:51;;;;;;;0.00;0.00;;;0.90;99.90;;;;;;5053895;28;20178;-73
2023/03/16 02:28:38;;;;;;;0.10;0.10;;;0.90;99.90;;;;;;5053522;28;20704;-73
2023/03/16 02:31:05;;;;;;;0.57;0.57;;;0.90;99.90;;;;;;5053456;28;20258;-73
2023/03/16 02:33:32;;;;;;;0.10;0.10;;;0.90;99.90;;;;;;5053490;28;20185;-73
2023/03/16 02:35:58;;;;;;;0.00;0.00;;;0.90;99.90;;;;;;5053550;28;20239;-73
2023/03/16 02:38:23;;;;;;;0.80;0.80;;;0.90;99.90;;;;;;5053138;28;20587;-73
2023/03/16 02:41:00;;;;;;;0.17;0.13;;;0.90;99.90;;;;;;5053237;28;20213;-73
2023/03/16 02:43:32;;;;;;;0.03;0.03;;;0.90;99.90;;;;;;5052562;28;20641;-73
2023/03/16 02:46:02;;;;;;;0.20;0.20;;;0.90;99.90;;;;;;5052111;28;20750;-73
2023/03/16 02:48:46;;;;;;;0.00;0.00;;;0.90;99.90;;;;;;5052975;28;20537;-73
2023/03/16 02:51:12;;;;;;;0.07;0.07;;;0.90;99.90;;;;;;5053025;28;20184;-73
2023/03/16 02:53:37;;;;;;;0.00;0.00;;;0.90;99.90;;;;;;5053115;28;20182;-73
2023/03/16 02:56:03;;;;;;;0.08;0.08;;;0.90;99.90;;;;;;5053036;28;20185;-73
2023/03/16 02:58:30;;;;;;;0.00;0.00;;;0.90;99.90;;;;;;5052652;28;20201;-73
2023/03/16 03:00:56;;;;;;;0.00;0.00;;;0.90;99.90;;;;;;5052870;28;20221;-74
2023/03/16 03:03:22;;;;;;;0.05;0.05;;;0.90;99.90;;;;;;5052908;28;20641;-73
2023/03/16 03:05:48;;;;;;;0.52;0.52;;;0.90;99.90;;;;;;5052722;28;20193;-73
2023/03/16 03:08:14;;;;;;;0.00;0.00;;;1.00;99.90;;;;;;5059345;28;20185;-73
2023/03/16 03:10:39;;;;;;;0.10;0.10;;;1.00;99.90;;;;;;5062905;28;20201;-73
2023/03/16 03:13:06;;;;;;;0.15;0.15;;;1.00;99.90;;;;;;5054980;28;20193;-73
2023/03/16 03:15:32;;;;;;;0.00;0.00;;;1.00;99.90;;;;;;5052452;28;20189;-73
2023/03/16 03:17:58;;;;;;;0.38;0.38;;;1.00;99.90;;;;;;5052559;28;20227;-73
2023/03/16 03:20:24;;;;;;;0.17;0.17;;;1.00;99.90;;;;;;5052331;28;20225;-73
2023/03/16 03:22:51;;;;;;;0.03;0.03;;;1.00;99.90;;;;;;5063270;28;20182;-73
2023/03/16 03:25:18;;;;;;;0.00;0.00;;;0.90;99.90;;;;;;5052728;28;20515;-72
2023/03/16 03:27:45;;;;;;;0.00;0.00;;;0.90;99.90;;;;;;5052380;28;20178;-73
2023/03/16 03:30:16;;;;;;;0.00;0.00;;;0.90;99.90;;;;;;5052232;28;20685;-73
2023/03/16 03:32:42;;;;;;;0.00;0.00;;;1.00;99.90;;;;;;5050972;28;20632;-73
2023/03/16 03:35:11;;;;;;;0.10;0.10;;;0.90;99.90;;;;;;5052172;28;20182;-73
2023/03/16 03:37:41;;;;;;;0.00;0.00;;;0.90;99.90;;;;;;5050756;28;20268;-72
2023/03/16 03:40:14;;;;;;;0.10;0.10;;;0.90;99.90;;;;;;5052195;28;20539;-73
2023/03/16 03:42:40;;;;;;;0.00;0.00;;;0.90;99.90;;;;;;5052115;28;20641;-72
2023/03/16 03:45:07;;;;;;;0.40;0.40;;;0.90;99.90;;;;;;5052045;28;20182;-72
2023/03/16 03:47:33;;;;;;;0.00;0.00;;;0.90;99.90;;;;;;5052136;28;20223;-73
2023/03/16 03:49:58;;;;;;;0.30;0.25;;;0.90;99.90;;;;;;5052104;28;20218;-73
2023/03/16 03:52:24;;;;;;;0.20;0.20;;;0.90;99.90;;;;;;5051792;28;20182;-72
2023/03/16 03:54:50;;;;;;;0.00;0.00;;;0.90;99.90;;;;;;5051264;28;20196;-72
2023/03/16 03:57:16;;;;;;;0.45;0.45;;;0.90;99.90;;;;;;5051892;28;20785;-72
2023/03/16 03:59:42;;;;;;;0.10;0.10;;;0.90;99.90;;;;;;5051744;28;20209;-72
2023/03/16 04:02:12;;;;;;;0.03;0.03;;;0.90;99.90;;;;;;5052044;28;20189;-73
2023/03/16 04:04:38;;;;;;;0.10;0.10;;;0.90;99.90;;;;;;5052135;28;20199;-73
2023/03/16 04:07:04;;;;;;;0.25;0.25;;;0.90;99.90;;;;;;5051661;28;20213;-73
2023/03/16 04:09:32;;;;;;;0.10;0.10;;;0.90;99.90;;;;;;5051756;28;20949;-72
2023/03/16 04:12:03;;;;;;;0.30;0.30;;;0.90;99.90;;;;;;5051723;28;20656;-72
2023/03/16 04:14:29;;;;;;;0.00;0.00;;;0.90;99.90;;;;;;5053281;28;20181;-72
2023/03/16 04:17:03;;;;;;;0.00;0.00;;;0.90;99.90;;;;;;5068077;28;20571;-72
2023/03/16 04:19:29;;;;;;;0.10;0.10;;;0.80;99.90;;;;;;5052372;28;20178;-71
2023/03/16 04:21:54;;;;;;;0.00;0.00;;;0.80;99.90;;;;;;5047505;28;20199;-73
2023/03/16 04:24:21;;;;;;;0.32;0.32;;;0.80;99.90;;;;;;5059560;28;20285;-73
2023/03/16 04:26:47;;;;;;;0.00;0.00;;;0.80;99.90;;;;;;5047482;28;20184;-72
2023/03/16 04:29:16;;;;;;;0.10;0.10;;;0.80;99.90;;;;;;5045162;28;20268;-74
2023/03/16 04:31:42;;;;;;;0.00;0.00;;;0.80;99.90;;;;;;5047118;28;20185;-71
2023/03/16 04:34:08;;;;;;;0.00;0.00;;;0.80;99.90;;;;;;5047726;28;20542;-72
2023/03/16 04:36:34;;;;;;;0.00;0.00;;;0.80;99.90;;;;;;5047672;28;20271;-72
2023/03/16 04:38:59;;;;;;;1.88;0.30;;;0.70;99.90;;;;;;5046410;28;20182;-65
2023/03/16 04:41:25;;;;;;;0.00;0.00;;;0.70;99.90;;;;;;5047815;28;20193;-72
2023/03/16 04:43:50;;;;;;;0.00;0.00;;;0.80;99.90;;;;;;5047836;28;20559;-66
2023/03/16 04:46:16;;;;;;;0.00;0.00;;;0.70;99.90;;;;;;5047468;28;20201;-63
2023/03/16 04:48:42;;;;;;;0.00;0.00;;;0.80;99.90;;;;;;5047608;28;20264;-72
2023/03/16 04:51:07;;;;;;;0.10;0.10;;;0.70;99.90;;;;;;5047883;28;20192;-69
2023/03/16 04:53:33;;;;;;;0.00;0.00;;;0.80;99.90;;;;;;5047433;28;20178;-71
2023/03/16 04:55:59;;;;;;;0.00;0.00;;;0.80;99.90;;;;;;5047202;28;20224;-70
2023/03/16 04:58:24;;;;;;;0.28;0.28;;;0.80;99.90;;;;;;5046858;28;20253;-68
2023/03/16 05:00:57;;;;;;;0.00;0.00;;;0.80;99.90;;;;;;5047330;28;20520;-66
2023/03/16 05:03:22;;;;;;;0.08;0.08;;;0.80;99.90;;;;;;5047629;28;20304;-68
2023/03/16 05:05:48;;;;;;;1.13;0.30;;;0.80;99.90;;;;;;5045547;28;20268;-71
2023/03/16 05:08:14;;;;;;;0.20;0.20;;;0.80;99.90;;;;;;5048795;28;20532;-70
2023/03/16 05:10:40;;;;;;;0.17;0.17;;;0.80;99.90;;;;;;5065308;28;20188;-71
2023/03/16 05:13:06;;;;;;;0.10;0.10;;;0.80;99.90;;;;;;5047321;28;20200;-71
2023/03/16 05:15:32;;;;;;;0.00;0.00;;;0.80;99.90;;;;;;5046595;28;20251;-70
2023/03/16 05:17:58;;;;;;;0.70;0.28;;;0.80;99.90;;;;;;5049038;28;20641;-70
2023/03/16 05:20:24;;;;;;;0.45;0.45;;;0.80;99.90;;;;;;5058428;28;20180;-70
2023/03/16 05:22:50;;;;;;;0.00;0.00;;;0.80;99.90;;;;;;5046927;28;20188;-70
2023/03/16 05:25:17;;;;;;;0.00;0.00;;;0.80;99.90;;;;;;5046961;28;20197;-70
2023/03/16 05:27:47;;;;;;;0.08;0.08;;;0.80;99.90;;;;;;5037664;28;20257;-70
2023/03/16 05:30:15;;;;;;;0.13;0.13;;;0.80;99.90;;;;;;5033730;28;20182;-70
2023/03/16 05:32:41;;;;;;;0.00;0.00;;;0.80;99.90;;;;;;5033657;28;20590;-70
2023/03/16 05:35:07;;;;;;;0.32;0.32;;;0.80;99.90;;;;;;5032459;28;20218;-70
2023/03/16 05:37:36;;;;;;;0.40;0.40;;;0.80;99.90;;;;;;5033569;28;20186;-70
2023/03/16 05:40:11;;;;;;;0.00;0.00;;;0.90;99.90;;;;;;5033673;28;20622;-69
2023/03/16 05:42:36;;;;;;;0.05;0.05;;;0.90;99.90;;;;;;5033635;28;20204;-70
2023/03/16 05:45:02;;;;;;;0.20;0.20;;;0.90;99.90;;;;;;5033569;28;20202;-70
2023/03/16 05:47:27;;;;;;;0.28;0.28;;;0.90;99.90;;;;;;5033442;28;20223;-70
2023/03/16 05:49:53;;;;;;;0.00;0.00;;;1.00;99.90;;;;;;5033407;28;20252;-70
2023/03/16 05:52:18;;;;;;;0.32;0.32;;;1.00;99.90;;;;;;5033357;28;20565;-69
2023/03/16 05:54:44;;;;;;;0.00;0.00;;;1.00;99.90;;;;;;5033039;28;20170;-70
2023/03/16 05:57:09;;;;;;;0.10;0.10;;;1.10;99.90;;;;;;5032949;28;20273;-70
2023/03/16 05:59:35;;;;;;;0.20;0.20;;;1.10;99.90;;;;;;5032880;28;20178;-70
2023/03/16 06:02:01;;;;;;;0.00;0.00;;;1.20;99.90;;;;;;5032935;28;20192;-70
2023/03/16 06:04:26;;;;;;;0.00;0.00;;;1.20;99.90;;;;;;5032739;28;20171;-70
2023/03/16 06:06:51;;;;;;;0.00;0.00;;;1.30;99.90;;;;;;5032595;28;20201;-70
2023/03/16 06:09:17;;;;;;;0.10;0.10;;;1.40;99.90;;;;;;5032876;28;20602;-70
2023/03/16 06:11:43;;;;;;;0.08;0.08;;;1.40;99.90;;;;;;5032842;28;20796;-70
2023/03/16 06:14:08;;;;;;;0.00;0.00;;;1.40;99.90;;;;;;5032827;28;20182;-70
2023/03/16 06:16:34;;;;;;;0.10;0.10;;;1.50;99.90;;;;;;5032522;28;20701;-70
2023/03/16 06:18:59;;;;;;;0.00;0.00;;;1.50;99.90;;;;;;5032682;28;20170;-70
2023/03/16 06:21:25;;;;;;;0.08;0.08;;;1.60;99.90;;;;;;5032449;28;20178;-70
2023/03/16 06:23:50;;;;;;;0.10;0.10;;;1.60;99.90;;;;;;5032507;28;20630;-70
2023/03/16 06:26:16;;;;;;;0.10;0.10;;;1.60;99.90;;;;;;5032587;28;20616;-69
2023/03/16 06:28:41;;;;;;;0.10;0.10;;;1.60;99.90;;;;;;5032237;28;20166;-70
2023/03/16 06:31:07;;;;;;;0.00;0.00;;;1.60;99.90;;;;;;5032448;28;20545;-71
2023/03/16 06:33:32;;;;;;;0.00;0.00;;;1.70;99.90;;;;;;5032151;28;20170;-71
2023/03/16 06:35:58;;;;;;;0.00;0.00;;;1.70;99.90;;;;;;5032218;28;20246;-70
2023/03/16 06:38:23;;;;;;;0.32;0.32;;;1.70;99.90;;;;;;5031360;28;20174;-70
2023/03/16 06:40:53;;;;;;;0.00;0.00;;;1.80;99.90;;;;;;5032147;28;20193;-70
2023/03/16 06:43:18;;;;;;;0.03;0.03;;;1.80;99.90;;;;;;5032184;28;20257;-69
2023/03/16 06:45:44;;;;;;;0.00;0.00;;;1.90;99.90;;;;;;5032209;28;20658;-69
2023/03/16 06:48:10;;;;;;;0.10;0.10;;;2.00;99.90;;;;;;5031921;28;20253;-69
2023/03/16 06:50:35;;;;;;;0.00;0.00;;;2.20;99.90;;;;;;5031864;28;20649;-69
2023/03/16 06:53:01;;;;;;;0.00;0.00;;;2.40;99.90;;;;;;5031983;28;20170;-69
2023/03/16 06:55:26;;;;;;;0.00;0.00;;;2.60;99.90;;;;;;5031878;28;20233;-70
2023/03/16 06:57:52;;;;;;;0.38;0.38;;;2.90;99.90;;;;;;5032035;28;20184;-72
2023/03/16 07:00:18;;;;;;;0.03;0.03;;;3.20;99.90;;;;;;5032037;28;20170;-70
2023/03/16 07:02:43;;;;;;;0.00;0.00;;;3.50;99.90;;;;;;5032013;28;20181;-71
2023/03/16 07:05:12;;;;;;;0.00;0.00;;;3.80;99.90;;;;;;5031802;28;20186;-71
2023/03/16 07:07:41;;;;;;;0.00;0.00;;;4.10;99.90;;;;;;5031714;28;20209;-72
2023/03/16 07:10:12;;;;;;;0.15;0.15;;;4.50;99.90;;;;;;5032193;28;20261;-72
2023/03/16 07:12:37;;;;;;;0.00;0.00;;;4.90;99.90;;;;;;5032219;28;20181;-72
2023/03/16 07:15:03;;;;;;;0.00;0.00;;;5.40;99.90;;;;;;5031789;28;20701;-72
2023/03/16 07:17:29;;;;;;;0.10;0.10;;;5.90;99.90;;;;;;5031766;28;20175;-69
2023/03/16 07:19:54;;;;;;;0.17;0.17;;;6.30;99.90;;;;;;5031839;28;20221;-70
2023/03/16 07:22:20;;;;;;;0.03;0.03;;;6.80;99.90;;;;;;5031718;28;20261;-68
2023/03/16 07:24:50;;;;;;;0.20;0.20;;;7.20;99.90;;;;;;5031600;28;20171;-69
2023/03/16 07:27:16;;;;;;;0.00;0.00;;;7.70;99.90;;;;;;5031598;28;20186;-68
2023/03/16 07:29:41;;;;;;;0.00;0.00;;;8.10;99.90;;;;;;5030370;28;20178;-68
2023/03/16 07:32:07;;;;;;;0.00;0.00;;;8.20;99.90;;;;;;5031662;28;20178;-69
2023/03/16 07:34:33;;;;;;;0.13;0.13;;;8.20;99.90;;;;;;5031424;28;20182;-69
2023/03/16 07:36:58;;;;;;;0.00;0.00;;;8.40;99.90;;;;;;5031377;28;20218;-71
2023/03/16 07:39:24;;;;;;;0.00;0.00;;;8.80;99.50;;;;;;5031433;28;20173;-69
2023/03/16 07:41:50;;;;;;;0.15;0.15;;;9.10;99.40;;;;;;5031340;28;20193;-70
2023/03/16 07:44:15;;;;;;;0.00;0.00;;;9.30;98.70;;;;;;5031532;28;20219;-68
2023/03/16 07:46:41;;;;;;;0.00;0.00;;;9.60;98.10;;;;;;5031215;28;20182;-69
2023/03/16 07:49:08;;;;;;;0.00;0.00;;;9.80;97.10;;;;;;5031307;28;20185;-69
2023/03/16 07:51:34;;;;;;;0.00;0.00;;;9.90;96.70;;;;;;5031023;28;20194;-70
2023/03/16 07:53:59;;;;;;;0.00;0.00;;;10.10;96.00;;;;;;5029985;28;20185;-70
2023/03/16 07:56:25;;;;;;;0.00;0.00;;;10.40;96.00;;;;;;5031096;28;20677;-70
2023/03/16 07:58:51;;;;;;;0.00;0.00;;;10.60;94.00;;;;;;5031051;28;20217;-71
2023/03/16 08:01:16;;;;;;;0.00;0.00;;;10.80;93.60;;;;;;5031076;28;20197;-70
2023/03/16 08:03:43;;;;;;;0.00;0.00;;;11.00;93.40;;;;;;5030998;28;20178;-70
2023/03/16 08:06:09;;;;;;;0.00;0.00;;;11.20;92.80;;;;;;5030923;28;20186;-70
2023/03/16 08:08:34;;;;;;;0.17;0.17;;;11.40;92.10;;;;;;5030837;28;20181;-70
2023/03/16 08:11:00;;;;;;;0.00;0.00;;;11.70;92.10;;;;;;5029897;28;20248;-71
2023/03/16 08:13:26;;;;;;;0.00;0.00;;;11.90;90.80;;;;;;5029702;28;20185;-70
2023/03/16 08:15:57;;;;;;;0.00;0.00;;;12.10;90.40;;;;;;5030629;28;20238;-71
2023/03/16 08:18:26;;;;;;;0.00;0.00;;;12.30;89.30;;;;;;5030811;28;20185;-70
2023/03/16 08:20:52;;;;;;;0.00;0.00;;;12.50;88.90;;;;;;5030894;28;20177;-72
2023/03/16 08:23:18;;;;;;;0.00;0.00;;;12.70;88.90;;;;;;5031002;28;20659;-71
2023/03/16 08:25:43;;;;;;;0.13;0.13;;;12.90;88.50;;;;;;5031060;28;20224;-68
2023/03/16 08:28:09;;;;;;;0.00;0.00;;;13.10;86.20;;;;;;5031015;28;20178;-68
2023/03/16 08:30:36;;;;;;;0.00;0.00;;;13.20;82.50;;;;;;5030953;28;20171;-69
2023/03/16 08:33:02;;;;;;;0.00;0.00;;;12.90;82.00;;;;;;5030916;28;20602;-70
2023/03/16 08:35:28;;;;;;;0.00;0.00;;;13.00;83.50;;;;;;5030722;28;20297;-68
2023/03/16 08:37:55;;;;;;;0.00;0.00;;;13.10;84.40;;;;;;5031071;28;20277;-70
2023/03/16 08:40:21;;;;;;;0.00;0.00;;;13.30;81.90;;;;;;5030922;28;20170;-70
2023/03/16 08:42:49;;;;;;;0.00;0.00;;;13.20;80.80;;;;;;5030939;28;20197;-70
2023/03/16 08:45:16;;;;;;;0.00;0.00;;;13.20;80.60;;;;;;5030936;28;20269;-69
2023/03/16 08:47:42;;;;;;;0.00;0.00;;;13.30;80.10;;;;;;5031015;28;20178;-70
2023/03/16 08:50:10;;;;;;;0.00;0.00;;;13.10;79.70;;;;;;5030953;28;20183;-70
2023/03/16 08:52:36;;;;;;;0.00;0.00;;;13.10;80.30;;;;;;5030666;28;20174;-70
2023/03/16 08:55:04;;;;;;;0.00;0.00;;;13.10;81.50;;;;;;5030818;28;20182;-69
2023/03/16 08:57:33;;;;;;;0.00;0.00;;;13.20;81.20;;;;;;5030632;28;20181;-70
2023/03/16 08:59:58;;;;;;;0.00;0.00;;;13.30;81.40;;;;;;5030771;28;20205;-70
2023/03/16 09:02:24;;;;;;;0.00;0.00;;;13.60;82.10;;;;;;5032100;28;20178;-70
2023/03/16 09:04:51;;;;;;;0.00;0.00;;;13.80;78.30;;;;;;5034421;28;20178;-69
2023/03/16 09:07:17;;;;;;;0.00;0.00;;;13.70;76.50;;;;;;5034308;28;20186;-70
2023/03/16 09:09:44;;;;;;;0.10;0.10;;;13.90;77.70;;;;;;5034306;28;20182;-70
2023/03/16 09:12:09;;;;;;;0.22;0.22;;;13.70;76.40;;;;;;5034205;28;20228;-70
2023/03/16 09:14:37;;;;;;;0.00;0.00;;;13.50;76.60;;;;;;5033952;28;20182;-69
2023/03/16 09:17:02;;;;;;;0.00;0.00;;;13.60;78.40;;;;;;5034215;28;20221;-71
2023/03/16 09:19:30;;;;;;;0.00;0.00;;;13.60;75.90;;;;;;5032932;28;20174;-70
2023/03/16 09:21:56;;;;;;;0.00;0.00;;;13.70;76.70;;;;;;5034243;28;20182;-70
2023/03/16 09:24:21;;;;;;;0.00;0.00;;;13.70;74.50;;;;;;5033962;28;20197;-70
2023/03/16 09:26:47;;;;;;;0.00;0.00;;;13.60;76.80;;;;;;5034177;28;20244;-69
2023/03/16 09:29:13;;;;;;;0.00;0.00;;;13.60;74.30;;;;;;5033981;28;20705;-70
2023/03/16 09:31:39;;;;;;;0.00;0.00;;;13.60;75.50;;;;;;5034020;28;20190;-70
2023/03/16 09:34:05;;;;;;;0.00;0.00;;;13.60;75.90;;;;;;5033981;28;20256;-70
2023/03/16 09:36:32;;;;;;;0.00;0.00;;;13.70;76.20;;;;;;5033686;28;20860;-69
2023/03/16 09:38:58;;;;;;;0.00;0.00;;;13.70;73.40;;;;;;5033916;28;20209;-70
2023/03/16 09:41:47;;;;;;;0.00;0.00;;;13.70;75.40;;;;;;5033680;28;20177;-70
2023/03/16 09:44:34;;;;;;;0.10;0.10;;;14.00;75.00;;;;;;5033773;28;20181;-70
2023/03/16 09:47:02;;;;;;;0.00;0.00;;;13.80;73.00;;;;;;5033535;28;20181;-70
2023/03/16 09:49:39;;;;;;;0.00;0.00;;;13.80;75.50;;;;;;5033460;28;20221;-70
2023/03/16 09:52:14;;;;;;;0.00;0.00;;;13.60;74.50;;;;;;5033688;28;20546;-70
2023/03/16 09:55:03;;;;;;;0.00;0.00;;;13.50;74.00;;;;;;5033523;28;20714;-70
2023/03/16 09:57:35;;;;;;;0.00;0.00;;;13.20;73.10;;;;;;5033387;28;20190;-70
2023/03/16 10:00:24;;;;;;;0.00;0.00;;;13.00;75.40;;;;;;5033490;28;20170;-71
2023/03/16 10:03:04;;;;;;;0.00;0.00;;;12.90;75.00;;;;;;5033398;28;20197;-71
2023/03/16 10:05:31;;;;;;;0.00;0.00;;;12.90;75.90;;;;;;5033224;28;20170;-71
2023/03/16 10:08:14;;;;;;;0.00;0.00;;;12.90;76.30;;;;;;5033066;28;20182;-72
2023/03/16 10:10:58;;;;;;;0.00;0.00;;;13.00;75.00;;;;;;5033214;28;20700;-70
2023/03/16 10:13:32;;;;;;;0.00;0.00;;;12.90;74.10;;;;;;5032985;28;20174;-71
2023/03/16 10:16:04;;;;;;;0.00;0.00;;;12.90;76.10;;;;;;5032844;28;20233;-71
2023/03/16 10:18:37;;;;;;;0.00;0.00;;;12.90;75.40;;;;;;5032924;28;20170;-70
2023/03/16 10:21:04;;;;;;;0.00;0.00;;;12.80;75.70;;;;;;5033013;28;20188;-69
2023/03/16 10:23:34;;;;;;;0.00;0.00;;;13.00;78.00;;;;;;5032809;28;20178;-71
2023/03/16 10:26:04;;;;;;;0.00;0.00;;;13.00;77.60;;;;;;5032923;28;20220;-70
2023/03/16 10:28:30;;;;;;;0.00;0.00;;;13.10;78.50;;;;;;5032787;28;20174;-70
2023/03/16 10:30:58;;;;;;;0.00;0.00;;;13.10;78.30;;;;;;5032887;28;20178;-70
2023/03/16 10:33:30;;;;;;;0.00;0.00;;;13.20;78.40;;;;;;5032766;28;20174;-70
2023/03/16 10:36:04;;;;;;;0.40;0.32;;;13.30;76.30;;;;;;5032779;28;20212;-70
2023/03/16 10:38:39;;;;;;;0.00;0.00;;;13.20;75.50;;;;;;5032584;28;20213;-71
2023/03/16 10:41:26;;;;;;;0.00;0.00;;;13.40;80.30;;;;;;5032705;28;20270;-71
2023/03/16 10:43:56;;;;;;;0.00;0.00;;;13.60;78.60;;;;;;5031317;28;20174;-70
2023/03/16 10:46:23;;;;;;;0.00;0.00;;;13.80;77.50;;;;;;5032526;28;20186;-71
2023/03/16 10:49:00;;;;;;;0.00;0.00;;;13.90;76.50;;;;;;5031098;28;20174;-70
2023/03/16 10:51:35;;;;;;;0.00;0.00;;;14.20;76.00;;;;;;5032549;28;20183;-70
2023/03/16 10:54:13;;;;;;;0.00;0.00;;;14.30;75.60;;;;;;5032436;28;20170;-71
2023/03/16 10:56:39;;;;;;;0.22;0.22;;;14.50;72.30;;;;;;5032337;28;20240;-70
2023/03/16 10:59:34;;;;;;;0.00;0.00;;;14.60;71.10;;;;;;5032282;28;20208;-70
2023/03/16 11:02:04;;;;;;;0.00;0.00;;;14.50;72.90;;;;;;5031553;28;20547;-70
2023/03/16 11:04:31;;;;;;;0.00;0.00;;;14.40;74.10;;;;;;5032237;28;20173;-69
2023/03/16 11:06:58;;;;;;;0.00;0.00;;;14.40;71.50;;;;;;5032348;28;20586;-70
2023/03/16 11:09:29;;;;;;;0.00;0.00;;;14.60;73.60;;;;;;5032170;28;20252;-70
2023/03/16 11:11:55;;;;;;;0.00;0.00;;;14.50;72.60;;;;;;5032300;28;20293;-70
2023/03/16 11:14:24;;;;;;;0.00;0.00;;;14.50;71.40;;;;;;5031941;28;20185;-70
2023/03/16 11:16:54;;;;;;;0.00;0.00;;;14.50;73.20;;;;;;5031678;28;20341;-70
2023/03/16 11:19:24;;;;;;;0.00;0.00;;;14.70;71.20;;;;;;5031866;28;20221;-67
2023/03/16 11:22:01;;;;;;;0.00;0.00;;;14.60;72.50;;;;;;5031922;28;20190;-68
2023/03/16 11:25:01;;;;;;;0.10;0.10;;;14.80;71.30;;;;;;5031401;28;20213;-68
2023/03/16 11:27:36;;;;;;;0.00;0.00;;;14.70;71.60;;;;;;5029581;28;20194;-68
2023/03/16 11:30:32;;;;;;;0.00;0.00;;;14.70;71.20;;;;;;5031888;28;20185;-68
2023/03/16 11:32:59;;;;;;;0.00;0.00;;;14.60;68.70;;;;;;5031619;28;20182;-68
2023/03/16 11:35:36;;;;;;;0.00;0.00;;;14.50;70.30;;;;;;5031481;28;20210;-69
2023/03/16 11:38:18;;;;;;;0.00;0.00;;;14.60;68.70;;;;;;5031780;28;20177;-71
2023/03/16 11:41:01;;;;;;;0.00;0.00;;;14.40;67.10;;;;;;5030657;28;20201;-69
2023/03/16 11:43:55;;;;;;;0.00;0.00;;;14.20;67.60;;;;;;5031753;28;20527;-70
2023/03/16 11:46:40;;;;;;;0.10;0.10;;;14.20;69.70;;;;;;5031549;28;20209;-69
2023/03/16 11:49:20;;;;;;;0.00;0.00;;;14.20;68.00;;;;;;5031697;28;20182;-71
2023/03/16 11:52:11;;;;;;;0.00;0.00;;;14.20;68.80;;;;;;5031489;28;20647;-70
2023/03/16 11:55:02;;;;;;;0.00;0.00;;;14.20;68.40;;;;;;5030287;28;20308;-69
2023/03/16 11:57:41;;;;;;;0.00;0.00;;;14.20;68.80;;;;;;5031581;28;21051;-69
2023/03/16 12:00:12;;;;;;;0.00;0.00;;;14.30;69.60;;;;;;5031456;28;20174;-69
2023/03/16 12:02:54;;;;;;;0.00;0.00;;;14.30;67.00;;;;;;5030183;28;20182;-69
2023/03/16 12:05:38;;;;;;;0.00;0.00;;;14.40;67.00;;;;;;5031347;28;20205;-68
2023/03/16 12:08:09;;;;;;;0.20;0.20;;;14.40;67.90;;;;;;5031123;28;20186;-69
2023/03/16 12:10:35;;;;;;;0.00;0.00;;;14.60;68.60;;;;;;5031252;28;20503;-68
2023/03/16 12:13:55;;;;;;;0.00;0.00;;;14.70;67.20;;;;;;5030062;28;20189;-69
2023/03/16 12:16:32;;;;;;;0.00;0.00;;;14.70;65.50;;;;;;5030971;28;20233;-68
2023/03/16 12:19:01;;;;;;;0.00;0.00;;;14.70;66.90;;;;;;5031362;28;20178;-69
2023/03/16 12:21:38;;;;;;;0.00;0.00;;;14.70;67.20;;;;;;5031184;28;20213;-69
2023/03/16 12:24:15;;;;;;;0.20;0.20;;;14.70;66.10;;;;;;5031188;28;20279;-69
2023/03/16 12:26:42;;;;;;;0.00;0.00;;;14.60;65.20;;;;;;5031164;28;20170;-69
2023/03/16 12:29:35;;;;;;;0.00;0.00;;;14.50;65.30;;;;;;5031106;28;20186;-69
2023/03/16 12:32:08;;;;;;;0.00;0.00;;;14.40;67.60;;;;;;5031220;28;20327;-69
2023/03/16 12:34:46;;;;;;;0.00;0.00;;;14.50;64.40;;;;;;5030908;28;20181;-69
2023/03/16 12:37:29;;;;;;;0.00;0.00;;;14.80;65.10;;;;;;5032016;28;20262;-69
2023/03/16 12:40:07;;;;;;;0.00;0.00;;;14.80;64.40;;;;;;5035071;28;20647;-69
2023/03/16 12:42:45;;;;;;;0.00;0.00;;;14.70;64.30;;;;;;5034988;28;20469;-69
2023/03/16 12:45:31;;;;;;;0.00;0.00;;;14.70;65.40;;;;;;5034899;28;20173;-69
2023/03/16 12:48:23;;;;;;;0.00;0.00;;;14.60;63.90;;;;;;5034977;28;20181;-68
2023/03/16 12:50:55;;;;;;;0.10;0.10;;;14.70;64.40;;;;;;5034647;28;20200;-68
2023/03/16 12:53:38;;;;;;;0.00;0.00;;;14.70;64.20;;;;;;5034880;28;20186;-70
2023/03/16 12:56:08;;;;;;;0.00;0.00;;;14.70;62.70;;;;;;5034681;28;20217;-70
2023/03/16 12:58:38;;;;;;;0.00;0.00;;;14.80;61.40;;;;;;5034964;28;20655;-70
2023/03/16 13:01:08;;;;;;;0.00;0.00;;;14.80;63.10;;;;;;5034697;28;20178;-69
2023/03/16 13:03:34;;;;;;;0.00;0.00;;;15.00;63.30;;;;;;5034711;28;20174;-69
2023/03/16 13:06:02;;;;;;;0.00;0.00;;;14.90;62.60;;;;;;5034645;28;20547;-71